Time;durP1;ratioP1;P1;durP2;ratioP2;P2;SDS_P1;SDS_P2;PMS_P1;PMS_P2;Temp;Humidity;BMP_temperature;BMP_pressure;BME280_temperature;BME280_humidity;BME280_pressure;Samples;Min_cycle;Max_cycle;Signal;HPM_P1;HPM_P2
2022/03/17 00:01:58;;;;;;;33.33;28.10;;;8.50;99.90;;;;;;5053019;28;20440;-67
2022/03/17 00:04:24;;;;;;;32.10;28.53;;;8.60;99.90;;;;;;5052456;28;20440;-67
2022/03/17 00:06:51;;;;;;;31.90;28.43;;;8.60;99.90;;;;;;5052580;28;20456;-67
2022/03/17 00:09:18;;;;;;;35.93;29.43;;;8.50;99.90;;;;;;5052626;28;20486;-67
2022/03/17 00:11:45;;;;;;;37.80;31.73;;;8.50;99.90;;;;;;5052907;28;20542;-66
2022/03/17 00:14:13;;;;;;;36.90;31.00;;;8.50;99.90;;;;;;5052024;28;20473;-66
2022/03/17 00:16:40;;;;;;;32.90;29.30;;;8.50;99.90;;;;;;5052752;28;20462;-67
2022/03/17 00:19:09;;;;;;;35.17;29.47;;;8.50;99.90;;;;;;5052272;28;20539;-67
2022/03/17 00:21:37;;;;;;;34.70;29.67;;;8.50;99.90;;;;;;5052582;28;20443;-67
2022/03/17 00:24:06;;;;;;;34.63;30.37;;;8.50;99.90;;;;;;5051742;28;20447;-64
2022/03/17 00:26:34;;;;;;;34.10;30.17;;;8.50;99.90;;;;;;5052494;28;20486;-66
2022/03/17 00:29:02;;;;;;;35.93;30.70;;;8.50;99.90;;;;;;5052319;28;20510;-68
2022/03/17 00:31:30;;;;;;;33.70;30.00;;;8.50;99.90;;;;;;5052539;28;20970;-66
2022/03/17 00:33:57;;;;;;;37.23;30.93;;;8.40;99.90;;;;;;5052061;28;20444;-69
2022/03/17 00:36:24;;;;;;;33.33;29.73;;;8.40;99.90;;;;;;5051793;28;20466;-67
2022/03/17 00:38:51;;;;;;;37.47;31.03;;;8.50;99.90;;;;;;5051677;28;20433;-67
2022/03/17 00:41:17;;;;;;;34.80;30.53;;;8.50;99.90;;;;;;5052051;28;20437;-67
2022/03/17 00:43:44;;;;;;;37.47;32.00;;;8.40;99.90;;;;;;5052217;28;20444;-66
2022/03/17 00:46:11;;;;;;;33.33;28.97;;;8.40;99.90;;;;;;5051088;28;20443;-66
2022/03/17 00:48:39;;;;;;;33.47;28.73;;;8.40;99.90;;;;;;5051569;28;20506;-67
2022/03/17 00:51:06;;;;;;;36.20;30.90;;;8.40;99.90;;;;;;5052048;28;20440;-67
2022/03/17 00:53:33;;;;;;;37.53;30.30;;;8.30;99.90;;;;;;5052083;28;20436;-69
2022/03/17 00:56:00;;;;;;;35.83;31.40;;;8.30;99.90;;;;;;5050841;28;20467;-69
2022/03/17 00:58:29;;;;;;;37.07;31.27;;;8.30;99.90;;;;;;5051523;28;20436;-66
2022/03/17 01:00:56;;;;;;;34.90;30.27;;;8.20;99.90;;;;;;5051816;28;20448;-67
2022/03/17 01:03:23;;;;;;;35.87;31.53;;;8.20;99.90;;;;;;5051878;28;20432;-66
2022/03/17 01:05:52;;;;;;;36.17;32.03;;;8.10;99.90;;;;;;5050862;28;20440;-68
2022/03/17 01:08:19;;;;;;;35.73;31.90;;;8.20;99.90;;;;;;5052180;28;20480;-66
2022/03/17 01:10:46;;;;;;;38.27;32.33;;;8.20;99.90;;;;;;5051857;28;20459;-68
2022/03/17 01:13:13;;;;;;;34.20;30.50;;;8.30;99.90;;;;;;5051710;28;21005;-67
2022/03/17 01:15:40;;;;;;;39.73;32.77;;;8.30;99.90;;;;;;5050989;28;20452;-66
2022/03/17 01:18:06;;;;;;;37.13;31.47;;;8.30;99.90;;;;;;5051316;28;20570;-69
2022/03/17 01:20:33;;;;;;;33.07;29.47;;;8.20;99.90;;;;;;5051365;28;20458;-67
2022/03/17 01:23:04;;;;;;;35.70;31.40;;;8.10;99.90;;;;;;5051461;28;20440;-67
2022/03/17 01:25:31;;;;;;;36.90;31.07;;;8.10;99.90;;;;;;5051009;28;20499;-68
2022/03/17 01:27:58;;;;;;;39.90;33.23;;;8.10;99.90;;;;;;5051464;28;20548;-67
2022/03/17 01:30:26;;;;;;;37.50;31.97;;;8.00;99.90;;;;;;5051769;28;20502;-67
2022/03/17 01:32:53;;;;;;;34.43;30.60;;;7.90;99.90;;;;;;5051653;28;20980;-68
2022/03/17 01:35:19;;;;;;;39.10;30.87;;;7.90;99.90;;;;;;5050586;28;20511;-67
2022/03/17 01:37:47;;;;;;;38.57;31.80;;;7.90;99.90;;;;;;5050827;28;20835;-67
2022/03/17 01:40:15;;;;;;;40.97;33.27;;;7.90;99.90;;;;;;5051727;28;20468;-67
2022/03/17 01:42:43;;;;;;;39.70;32.40;;;7.90;99.90;;;;;;5051342;28;20444;-67
2022/03/17 01:45:11;;;;;;;36.53;30.10;;;7.90;99.90;;;;;;5050323;28;20451;-66
2022/03/17 01:47:38;;;;;;;35.30;31.50;;;8.00;99.90;;;;;;5050622;28;20470;-68
2022/03/17 01:50:07;;;;;;;38.47;33.00;;;8.00;99.90;;;;;;5050931;28;20479;-66
2022/03/17 01:52:35;;;;;;;39.97;32.83;;;7.90;99.90;;;;;;5051007;28;20483;-67
2022/03/17 01:55:02;;;;;;;39.00;33.60;;;7.90;99.90;;;;;;5050068;28;20534;-68
2022/03/17 01:57:30;;;;;;;36.73;31.33;;;8.00;99.90;;;;;;5050620;28;20464;-67
2022/03/17 01:59:57;;;;;;;37.87;31.30;;;8.00;99.90;;;;;;5051072;28;20497;-67
2022/03/17 02:02:25;;;;;;;35.00;29.70;;;8.00;99.90;;;;;;5050783;28;20523;-69
2022/03/17 02:04:52;;;;;;;39.97;32.70;;;8.00;99.90;;;;;;5050450;28;20436;-67
2022/03/17 02:07:21;;;;;;;38.57;32.87;;;7.90;99.90;;;;;;5051008;28;20470;-68
2022/03/17 02:09:49;;;;;;;41.67;31.40;;;7.90;99.90;;;;;;5050180;28;20545;-69
2022/03/17 02:15:04;;;;;;;34.63;29.83;;;8.00;99.90;;;;;;5008867;28;20527;-68
2022/03/17 02:17:32;;;;;;;40.63;34.10;;;7.90;99.90;;;;;;5050178;28;20513;-67
2022/03/17 02:19:59;;;;;;;39.23;32.70;;;7.90;99.90;;;;;;5049638;28;20428;-67
2022/03/17 02:22:27;;;;;;;36.90;31.10;;;7.90;99.90;;;;;;5050571;28;20442;-67
2022/03/17 02:27:45;;;;;;;41.83;33.90;;;7.90;99.90;;;;;;5050069;28;20885;-68
2022/03/17 02:30:13;;;;;;;39.40;32.90;;;7.90;99.90;;;;;;5050287;28;20537;-68
2022/03/17 02:32:40;;;;;;;40.43;33.40;;;7.80;99.90;;;;;;5050572;28;20451;-68
2022/03/17 02:35:10;;;;;;;38.00;30.93;;;7.80;99.90;;;;;;5049743;28;20527;-68
2022/03/17 02:37:37;;;;;;;40.00;33.30;;;7.90;99.90;;;;;;5049947;28;20535;-67
2022/03/17 02:40:08;;;;;;;35.93;30.20;;;7.80;99.90;;;;;;5050066;28;20432;-68
2022/03/17 02:42:35;;;;;;;36.23;29.00;;;7.90;99.90;;;;;;5050217;28;20446;-68
2022/03/17 02:45:04;;;;;;;38.23;32.23;;;7.90;99.90;;;;;;5049444;28;20439;-67
2022/03/17 02:47:32;;;;;;;39.70;31.07;;;7.90;99.90;;;;;;5049595;28;20476;-67
2022/03/17 02:49:59;;;;;;;37.73;30.70;;;7.90;99.90;;;;;;5049938;28;20581;-68
2022/03/17 02:52:27;;;;;;;37.87;30.53;;;7.80;99.90;;;;;;5050219;28;20447;-67
2022/03/17 02:54:55;;;;;;;36.00;30.83;;;7.90;99.90;;;;;;5049523;28;20440;-68
2022/03/17 02:57:24;;;;;;;39.53;30.47;;;7.90;99.90;;;;;;5050267;28;20466;-67
2022/03/17 02:59:51;;;;;;;39.50;32.00;;;7.90;99.90;;;;;;5050104;28;20527;-68
2022/03/17 03:02:19;;;;;;;41.67;32.60;;;7.90;99.90;;;;;;5049971;28;20451;-67
2022/03/17 03:04:46;;;;;;;38.80;31.97;;;8.00;99.90;;;;;;5049421;28;20444;-67
2022/03/17 03:07:13;;;;;;;33.10;28.87;;;8.00;99.90;;;;;;5049847;28;20464;-67
2022/03/17 03:09:40;;;;;;;36.70;31.30;;;8.00;99.90;;;;;;5049833;28;20838;-67
2022/03/17 03:12:08;;;;;;;37.50;31.63;;;8.10;99.90;;;;;;5050172;28;20548;-67
2022/03/17 03:14:36;;;;;;;38.93;31.77;;;8.10;99.90;;;;;;5049111;28;20446;-67
2022/03/17 03:17:04;;;;;;;38.37;30.00;;;8.10;99.90;;;;;;5050056;28;20870;-67
2022/03/17 03:19:30;;;;;;;36.83;32.20;;;8.10;99.90;;;;;;5049796;28;20451;-67
2022/03/17 03:21:57;;;;;;;37.30;31.23;;;8.20;99.90;;;;;;5049865;28;20458;-67
2022/03/17 03:24:24;;;;;;;35.87;28.33;;;8.20;99.90;;;;;;5049191;28;20444;-67
2022/03/17 03:26:52;;;;;;;38.07;31.50;;;8.20;99.90;;;;;;5049578;28;20478;-67
2022/03/17 03:29:22;;;;;;;39.07;31.10;;;8.20;99.90;;;;;;5049258;28;20483;-68
2022/03/17 03:31:51;;;;;;;36.07;30.37;;;8.20;99.90;;;;;;5052505;28;20459;-66
2022/03/17 03:34:18;;;;;;;35.10;29.93;;;8.30;99.90;;;;;;5053127;28;20444;-65
2022/03/17 03:39:29;;;;;;;38.67;31.30;;;8.40;99.90;;;;;;5053427;28;20419;-67
2022/03/17 03:41:57;;;;;;;35.73;30.90;;;8.40;99.90;;;;;;5053630;28;20448;-68
2022/03/17 03:44:24;;;;;;;36.60;29.17;;;8.40;99.90;;;;;;5052842;28;20454;-67
2022/03/17 03:46:52;;;;;;;40.53;31.83;;;8.40;99.90;;;;;;5053179;28;20472;-69
2022/03/17 03:49:20;;;;;;;34.27;28.33;;;8.50;99.90;;;;;;5053082;28;20927;-68
2022/03/17 03:51:47;;;;;;;35.73;29.00;;;8.50;99.90;;;;;;5053581;28;20453;-67
2022/03/17 03:54:14;;;;;;;35.00;30.43;;;8.50;99.90;;;;;;5052775;28;20478;-67
2022/03/17 03:56:41;;;;;;;38.77;30.80;;;8.40;99.90;;;;;;5053154;28;20939;-68
2022/03/17 03:59:08;;;;;;;36.43;30.03;;;8.40;99.90;;;;;;5052616;28;20962;-67
2022/03/17 04:01:35;;;;;;;37.90;30.53;;;8.50;99.90;;;;;;5053425;28;20450;-67
2022/03/17 04:04:03;;;;;;;37.53;29.40;;;8.50;99.90;;;;;;5053162;28;20439;-67
2022/03/17 04:06:30;;;;;;;36.33;28.40;;;8.50;99.90;;;;;;5053172;28;20570;-67
2022/03/17 04:08:57;;;;;;;35.67;29.33;;;8.50;99.90;;;;;;5052419;28;20452;-67
2022/03/17 04:11:24;;;;;;;33.47;27.60;;;8.40;99.90;;;;;;5053068;28;20540;-67
2022/03/17 04:13:51;;;;;;;40.60;31.00;;;8.50;99.90;;;;;;5052786;28;20447;-69
2022/03/17 04:16:18;;;;;;;38.90;30.03;;;8.40;99.90;;;;;;5052235;28;20468;-69
2022/03/17 04:18:45;;;;;;;34.20;28.87;;;8.30;99.90;;;;;;5052564;28;20816;-67
2022/03/17 04:21:13;;;;;;;38.37;31.23;;;8.40;99.90;;;;;;5052655;28;20534;-65
2022/03/17 04:23:40;;;;;;;40.23;31.90;;;8.40;99.90;;;;;;5052817;28;20451;-67
2022/03/17 04:26:06;;;;;;;37.27;29.60;;;8.30;99.90;;;;;;5051992;28;20448;-68
2022/03/17 04:28:33;;;;;;;35.97;29.53;;;8.30;99.90;;;;;;5052207;28;20443;-69
2022/03/17 04:31:00;;;;;;;38.70;30.40;;;8.30;99.90;;;;;;5052678;28;20590;-67
2022/03/17 04:33:27;;;;;;;37.47;30.43;;;8.30;99.90;;;;;;5052769;28;20448;-69
2022/03/17 04:35:53;;;;;;;39.37;30.87;;;8.30;99.90;;;;;;5051680;28;20448;-68
2022/03/17 04:38:22;;;;;;;36.67;30.27;;;8.30;99.90;;;;;;5051910;28;20957;-67
2022/03/17 04:40:49;;;;;;;34.30;29.43;;;8.30;99.90;;;;;;5052296;28;20963;-68
2022/03/17 04:43:17;;;;;;;38.50;29.10;;;8.20;99.90;;;;;;5050207;28;20452;-67
2022/03/17 04:45:45;;;;;;;36.20;28.50;;;8.30;99.90;;;;;;5050528;28;20447;-67
2022/03/17 04:48:11;;;;;;;37.87;31.03;;;8.30;99.90;;;;;;5051564;28;20483;-67
2022/03/17 04:50:38;;;;;;;34.13;29.10;;;8.30;99.90;;;;;;5052090;28;20515;-66
2022/03/17 04:55:51;;;;;;;37.53;30.07;;;8.30;99.90;;;;;;5051196;28;20443;-68
2022/03/17 04:58:18;;;;;;;39.10;29.77;;;8.30;99.90;;;;;;5051462;28;20558;-68
2022/03/17 05:00:46;;;;;;;35.57;29.60;;;8.30;99.90;;;;;;5051659;28;20531;-65
2022/03/17 05:03:14;;;;;;;39.87;30.40;;;8.30;99.90;;;;;;5053420;28;20448;-66
2022/03/17 05:05:41;;;;;;;36.03;30.20;;;8.40;99.90;;;;;;5050968;28;21029;-68
2022/03/17 05:08:08;;;;;;;36.60;29.40;;;8.40;99.90;;;;;;5051120;28;20472;-67
2022/03/17 05:10:36;;;;;;;38.20;30.70;;;8.40;99.90;;;;;;5051897;28;20490;-66
2022/03/17 05:13:06;;;;;;;37.90;30.10;;;8.40;99.90;;;;;;5051886;28;20444;-68
2022/03/17 05:15:33;;;;;;;38.80;31.67;;;8.40;99.90;;;;;;5051240;28;20559;-66
2022/03/17 05:18:01;;;;;;;37.40;31.13;;;8.40;99.90;;;;;;5051157;28;20479;-65
2022/03/17 05:20:28;;;;;;;39.17;30.17;;;8.40;99.90;;;;;;5051400;28;20444;-66
2022/03/17 05:22:54;;;;;;;36.13;30.83;;;8.40;99.90;;;;;;5051387;28;20454;-66
2022/03/17 05:25:22;;;;;;;36.40;30.40;;;8.40;99.90;;;;;;5050858;28;20450;-67
2022/03/17 05:27:49;;;;;;;40.20;31.40;;;8.40;99.90;;;;;;5050924;28;20554;-67
2022/03/17 05:30:19;;;;;;;37.93;29.63;;;8.50;99.90;;;;;;5051292;28;20506;-66
2022/03/17 05:32:48;;;;;;;34.30;30.13;;;8.40;99.90;;;;;;5051153;28;20451;-67
2022/03/17 05:35:16;;;;;;;36.70;30.57;;;8.40;99.90;;;;;;5050371;28;20448;-66
2022/03/17 05:37:43;;;;;;;35.70;30.10;;;8.40;99.90;;;;;;5051082;28;20569;-64
2022/03/17 05:40:14;;;;;;;37.30;29.73;;;8.40;99.90;;;;;;5050921;28;20446;-67
2022/03/17 05:42:41;;;;;;;34.30;28.60;;;8.40;99.90;;;;;;5051042;28;20451;-67
2022/03/17 05:45:09;;;;;;;36.30;30.00;;;8.40;99.90;;;;;;5050090;28;20536;-66
2022/03/17 05:47:38;;;;;;;37.30;31.20;;;8.40;99.90;;;;;;5050888;28;20475;-66
2022/03/17 05:50:09;;;;;;;36.00;29.70;;;8.50;99.90;;;;;;5050537;28;20890;-66
2022/03/17 05:52:36;;;;;;;34.90;28.70;;;8.50;99.90;;;;;;5051136;28;20486;-68
2022/03/17 05:55:03;;;;;;;34.10;28.77;;;8.50;99.90;;;;;;5050090;28;20454;-67
2022/03/17 05:57:30;;;;;;;36.00;30.30;;;8.50;99.90;;;;;;5049609;28;20471;-66
2022/03/17 05:59:57;;;;;;;37.23;30.90;;;8.50;99.90;;;;;;5045838;28;20945;-66
2022/03/17 06:02:24;;;;;;;34.20;28.07;;;8.40;99.90;;;;;;5042373;28;20471;-68
2022/03/17 06:04:52;;;;;;;35.43;28.43;;;8.50;99.90;;;;;;5047247;28;20452;-66
2022/03/17 06:07:19;;;;;;;35.17;28.67;;;8.50;99.90;;;;;;5049169;28;20472;-68
2022/03/17 06:09:45;;;;;;;37.23;30.00;;;8.60;99.90;;;;;;5047602;28;20448;-66
2022/03/17 06:12:15;;;;;;;36.73;29.43;;;8.60;99.90;;;;;;5046586;28;20506;-64
2022/03/17 06:14:42;;;;;;;34.17;27.80;;;8.60;99.90;;;;;;5045286;28;20450;-68
2022/03/17 06:17:11;;;;;;;38.20;29.57;;;8.70;99.90;;;;;;5045151;28;21196;-67
2022/03/17 06:19:38;;;;;;;35.83;29.37;;;8.70;99.90;;;;;;5046529;28;20439;-68
2022/03/17 06:22:07;;;;;;;36.87;30.70;;;8.70;99.90;;;;;;5046136;28;20463;-66
2022/03/17 06:24:33;;;;;;;35.40;29.00;;;8.80;99.90;;;;;;5044881;28;21169;-68
2022/03/17 06:27:01;;;;;;;36.33;29.13;;;8.80;99.90;;;;;;5048440;28;20466;-68
2022/03/17 06:29:27;;;;;;;34.27;29.30;;;8.80;99.90;;;;;;5049077;28;20445;-66
2022/03/17 06:31:55;;;;;;;40.60;31.93;;;8.90;99.90;;;;;;5048601;28;20480;-67
2022/03/17 06:34:22;;;;;;;36.13;30.20;;;8.80;99.90;;;;;;5048991;28;20537;-65
2022/03/17 06:36:48;;;;;;;40.50;31.27;;;9.00;99.90;;;;;;5048493;28;21017;-68
2022/03/17 06:39:17;;;;;;;36.93;29.60;;;9.10;99.90;;;;;;5049530;28;20444;-66
2022/03/17 06:41:43;;;;;;;34.40;28.40;;;9.00;99.90;;;;;;5047844;28;20447;-63
2022/03/17 06:44:10;;;;;;;38.93;32.57;;;9.10;99.90;;;;;;5048539;28;20547;-67
2022/03/17 06:46:37;;;;;;;33.33;27.90;;;9.20;99.90;;;;;;5048997;28;21060;-67
2022/03/17 06:49:04;;;;;;;34.47;29.33;;;9.30;99.90;;;;;;5049590;28;20539;-66
2022/03/17 06:51:31;;;;;;;34.17;28.57;;;9.40;99.90;;;;;;5049761;28;20536;-67
2022/03/17 06:53:57;;;;;;;34.10;29.17;;;9.40;99.90;;;;;;5046739;28;20444;-66
2022/03/17 06:56:26;;;;;;;31.33;26.17;;;9.40;99.90;;;;;;5048871;28;20472;-65
2022/03/17 06:58:52;;;;;;;35.70;28.57;;;9.50;99.90;;;;;;5049436;28;20444;-62
2022/03/17 07:01:19;;;;;;;35.50;30.23;;;9.60;99.90;;;;;;5049987;28;20832;-67
2022/03/17 07:03:46;;;;;;;34.43;28.87;;;9.70;99.90;;;;;;5050147;28;20528;-65
2022/03/17 07:06:13;;;;;;;35.83;29.27;;;9.80;99.90;;;;;;5049155;28;20452;-67
2022/03/17 07:08:40;;;;;;;33.17;27.50;;;9.80;99.90;;;;;;5049368;28;20460;-67
2022/03/17 07:11:06;;;;;;;35.27;28.60;;;9.90;99.90;;;;;;5048907;28;20549;-66
2022/03/17 07:13:35;;;;;;;34.77;29.50;;;10.00;99.90;;;;;;5049697;28;20466;-65
2022/03/17 07:16:02;;;;;;;34.43;27.63;;;10.00;99.90;;;;;;5048578;28;20444;-68
2022/03/17 07:18:29;;;;;;;36.40;31.03;;;10.00;99.90;;;;;;5048836;28;20462;-65
2022/03/17 07:20:57;;;;;;;33.90;27.93;;;10.20;99.90;;;;;;5049350;28;20478;-65
2022/03/17 07:23:24;;;;;;;35.77;30.03;;;10.20;99.90;;;;;;5049126;28;20969;-67
2022/03/17 07:25:53;;;;;;;34.60;29.20;;;10.30;99.90;;;;;;5048297;28;20821;-65
2022/03/17 07:28:21;;;;;;;30.97;27.27;;;10.40;99.90;;;;;;5048940;28;20557;-67
2022/03/17 07:30:49;;;;;;;33.77;29.27;;;10.50;99.90;;;;;;5049259;28;20483;-67
2022/03/17 07:33:16;;;;;;;38.33;29.50;;;10.50;99.90;;;;;;5049143;28;20446;-66
2022/03/17 07:35:43;;;;;;;34.17;30.20;;;10.50;99.90;;;;;;5048195;28;20487;-68
2022/03/17 07:38:10;;;;;;;31.23;27.83;;;10.60;99.90;;;;;;5048649;28;20468;-66
2022/03/17 07:40:37;;;;;;;33.13;28.37;;;10.60;99.90;;;;;;5049193;28;20452;-68
2022/03/17 07:43:04;;;;;;;33.20;28.60;;;10.60;99.90;;;;;;5049312;28;20475;-65
2022/03/17 07:45:31;;;;;;;34.60;29.40;;;10.70;99.90;;;;;;5048327;28;20837;-67
2022/03/17 07:47:59;;;;;;;34.00;27.47;;;10.60;99.90;;;;;;5048848;28;20845;-68
2022/03/17 07:50:26;;;;;;;37.60;29.00;;;10.70;99.90;;;;;;5048902;28;21016;-66
2022/03/17 07:52:53;;;;;;;34.63;27.73;;;10.70;99.90;;;;;;5048880;28;20454;-66
2022/03/17 07:55:20;;;;;;;37.77;30.50;;;10.80;99.90;;;;;;5048423;28;20452;-67
2022/03/17 07:57:47;;;;;;;33.97;29.37;;;10.80;99.90;;;;;;5049096;28;20456;-66
2022/03/17 08:00:15;;;;;;;35.27;31.10;;;10.90;99.90;;;;;;5048640;28;20447;-67
2022/03/17 08:02:42;;;;;;;38.10;32.73;;;10.80;99.90;;;;;;5049360;28;20534;-67
2022/03/17 08:05:11;;;;;;;37.93;31.40;;;10.80;99.90;;;;;;5048313;28;20447;-66
2022/03/17 08:07:38;;;;;;;38.97;32.33;;;11.00;99.90;;;;;;5048932;28;20476;-67
2022/03/17 08:10:07;;;;;;;36.00;30.43;;;11.00;99.90;;;;;;5048415;28;20527;-66
2022/03/17 08:12:34;;;;;;;36.10;30.27;;;11.10;99.90;;;;;;5048991;28;20483;-66
2022/03/17 08:15:01;;;;;;;35.20;28.90;;;11.10;99.90;;;;;;5048203;28;20509;-67
2022/03/17 08:17:28;;;;;;;42.83;32.70;;;11.10;99.90;;;;;;5049281;28;20493;-66
2022/03/17 08:19:55;;;;;;;35.77;29.43;;;11.20;99.90;;;;;;5052375;28;20894;-66
2022/03/17 08:22:24;;;;;;;33.77;30.03;;;11.30;99.90;;;;;;5052671;28;20484;-65
2022/03/17 08:24:50;;;;;;;37.30;32.37;;;11.40;99.90;;;;;;5051813;28;20452;-66
2022/03/17 08:27:17;;;;;;;35.27;30.20;;;11.20;99.90;;;;;;5052260;28;20542;-66
2022/03/17 08:29:44;;;;;;;39.83;31.33;;;11.30;99.90;;;;;;5051915;28;20988;-67
2022/03/17 08:32:11;;;;;;;34.77;30.60;;;11.40;99.90;;;;;;5052420;28;20834;-67
2022/03/17 08:34:38;;;;;;;38.03;30.53;;;11.40;99.90;;;;;;5051310;28;20456;-67
2022/03/17 08:37:05;;;;;;;34.50;30.67;;;11.40;99.90;;;;;;5052270;28;20476;-67
2022/03/17 08:39:33;;;;;;;36.80;31.70;;;11.60;99.90;;;;;;5051838;28;20440;-67
2022/03/17 08:42:00;;;;;;;34.33;29.40;;;11.60;99.90;;;;;;5052047;28;20441;-67
2022/03/17 08:44:28;;;;;;;36.93;32.80;;;11.60;99.90;;;;;;5051240;28;20455;-67
2022/03/17 08:49:38;;;;;;;33.97;28.37;;;11.80;99.90;;;;;;5051593;28;21028;-66
2022/03/17 08:52:07;;;;;;;35.60;31.00;;;11.80;99.90;;;;;;5051935;28;20487;-65
2022/03/17 08:54:35;;;;;;;34.07;30.40;;;11.80;99.90;;;;;;5051000;28;20495;-66
2022/03/17 08:57:04;;;;;;;33.23;28.80;;;12.00;99.90;;;;;;5051883;28;20479;-67
2022/03/17 08:59:33;;;;;;;34.23;30.63;;;12.20;99.90;;;;;;5051868;28;20945;-66
2022/03/17 09:02:00;;;;;;;32.90;28.90;;;12.20;99.90;;;;;;5051984;28;20446;-65
2022/03/17 09:04:27;;;;;;;34.60;30.40;;;12.40;99.90;;;;;;5051140;28;20961;-67
2022/03/17 09:06:55;;;;;;;34.97;31.20;;;12.40;99.90;;;;;;5051981;28;20468;-67
2022/03/17 09:09:22;;;;;;;36.83;31.73;;;12.50;99.90;;;;;;5051513;28;20494;-66
2022/03/17 09:11:50;;;;;;;36.37;32.10;;;12.50;99.90;;;;;;5051800;28;20484;-67
2022/03/17 09:14:17;;;;;;;39.87;30.60;;;12.50;99.90;;;;;;5051504;28;20448;-67
2022/03/17 09:16:44;;;;;;;38.10;32.70;;;12.40;99.90;;;;;;5051625;28;20472;-67
2022/03/17 09:19:11;;;;;;;34.63;30.80;;;12.50;99.90;;;;;;5051342;28;20455;-67
2022/03/17 09:21:38;;;;;;;35.13;30.97;;;12.60;99.90;;;;;;5051509;28;20444;-68
2022/03/17 09:24:05;;;;;;;36.67;32.30;;;12.70;99.90;;;;;;5050757;28;20831;-67
2022/03/17 09:26:32;;;;;;;34.63;30.93;;;12.70;99.90;;;;;;5051071;28;20468;-67
2022/03/17 09:29:01;;;;;;;36.37;31.13;;;12.70;99.90;;;;;;5050723;28;20526;-67
2022/03/17 09:31:27;;;;;;;33.43;29.83;;;12.90;99.90;;;;;;5051184;28;20827;-69
2022/03/17 09:33:55;;;;;;;39.03;31.80;;;12.80;99.90;;;;;;5051185;28;20535;-68
2022/03/17 09:36:22;;;;;;;35.70;30.23;;;12.90;99.90;;;;;;5050677;28;20468;-68
2022/03/17 09:39:39;;;;;;;35.63;31.87;;;13.00;99.90;;;;;;5050623;28;20452;-67
2022/03/17 09:41:37;;;;;;;33.90;29.37;;;13.10;99.90;;;;;;5050800;28;20448;-66
2022/03/17 09:44:06;;;;;;;38.77;33.83;;;13.30;99.90;;;;;;5050224;28;20818;-67
2022/03/17 09:46:33;;;;;;;37.73;32.10;;;13.50;99.90;;;;;;5050588;28;20471;-67
2022/03/17 09:49:02;;;;;;;34.70;30.67;;;13.60;99.90;;;;;;5050466;28;20447;-67
2022/03/17 09:51:30;;;;;;;36.80;32.37;;;13.70;99.90;;;;;;5050832;28;20484;-67
2022/03/17 09:54:00;;;;;;;37.53;33.20;;;13.70;99.90;;;;;;5050617;28;20447;-67
2022/03/17 09:56:28;;;;;;;37.70;32.47;;;13.90;99.90;;;;;;5050091;28;20476;-66
2022/03/17 09:58:55;;;;;;;37.43;33.33;;;13.90;99.90;;;;;;5050302;28;20460;-67
2022/03/17 10:01:25;;;;;;;37.23;31.67;;;14.00;99.90;;;;;;5050580;28;20450;-66
2022/03/17 10:03:57;;;;;;;37.50;32.60;;;14.00;99.90;;;;;;5050576;28;20444;-66
2022/03/17 10:06:24;;;;;;;35.03;31.33;;;14.00;99.90;;;;;;5049402;28;20833;-68
2022/03/17 10:08:51;;;;;;;39.13;33.70;;;14.20;99.90;;;;;;5050221;28;20450;-66
2022/03/17 10:11:25;;;;;;;34.37;30.17;;;14.20;99.90;;;;;;5050454;28;20479;-68
2022/03/17 10:13:54;;;;;;;36.43;31.40;;;14.40;99.90;;;;;;5050396;28;20527;-67
2022/03/17 10:16:22;;;;;;;35.30;31.37;;;14.50;99.90;;;;;;5049569;28;20892;-67
2022/03/17 10:18:58;;;;;;;36.83;31.70;;;14.50;99.90;;;;;;5049913;28;20447;-68
2022/03/17 10:21:26;;;;;;;38.53;32.73;;;14.40;99.90;;;;;;5050240;28;20531;-65
2022/03/17 10:23:55;;;;;;;36.20;32.20;;;14.30;99.90;;;;;;5050131;28;20934;-67
2022/03/17 10:26:32;;;;;;;37.07;31.57;;;14.40;99.90;;;;;;5049735;28;20472;-67
2022/03/17 10:29:11;;;;;;;36.37;32.10;;;14.50;99.90;;;;;;5049500;28;20448;-68
2022/03/17 10:31:58;;;;;;;38.23;30.20;;;14.50;99.90;;;;;;5050211;28;20484;-67
2022/03/17 10:34:29;;;;;;;38.00;33.83;;;14.50;99.90;;;;;;5049430;28;20886;-67
2022/03/17 10:37:10;;;;;;;35.33;31.53;;;14.20;99.90;;;;;;5050013;28;20567;-67
2022/03/17 10:39:39;;;;;;;35.73;31.93;;;14.30;99.90;;;;;;5049367;28;20827;-67
2022/03/17 10:42:17;;;;;;;36.80;33.17;;;14.40;99.90;;;;;;5049657;28;20436;-67
2022/03/17 10:44:49;;;;;;;40.37;33.10;;;14.50;99.90;;;;;;5049143;28;20977;-66
2022/03/17 10:47:23;;;;;;;36.50;32.00;;;14.60;99.90;;;;;;5049775;28;20918;-67
2022/03/17 10:50:09;;;;;;;35.30;31.50;;;14.60;99.90;;;;;;5049456;28;20444;-67
2022/03/17 10:52:53;;;;;;;36.83;32.90;;;14.70;99.90;;;;;;5050062;28;20516;-67
2022/03/17 10:55:24;;;;;;;36.03;32.33;;;14.40;99.90;;;;;;5049321;28;20447;-66
2022/03/17 10:57:52;;;;;;;42.20;34.77;;;14.20;99.90;;;;;;5049831;28;20905;-66
2022/03/17 11:00:21;;;;;;;37.67;33.13;;;14.00;99.90;;;;;;5049331;28;20547;-67
2022/03/17 11:02:53;;;;;;;37.83;32.63;;;14.10;99.90;;;;;;5049788;28;20440;-68
2022/03/17 11:05:22;;;;;;;37.73;33.37;;;14.20;99.90;;;;;;5048814;28;20452;-67
2022/03/17 11:07:48;;;;;;;37.30;33.27;;;14.20;99.90;;;;;;5049236;28;20495;-67
2022/03/17 11:10:18;;;;;;;38.03;33.93;;;14.30;99.90;;;;;;5049098;28;20450;-67
2022/03/17 11:12:45;;;;;;;36.77;32.60;;;14.10;99.90;;;;;;5049195;28;20903;-67
2022/03/17 11:15:13;;;;;;;46.63;34.47;;;14.00;99.90;;;;;;5048512;28;20489;-68
2022/03/17 11:17:43;;;;;;;40.57;34.10;;;14.00;99.90;;;;;;5049430;28;20507;-67
2022/03/17 11:20:13;;;;;;;38.03;31.83;;;14.00;99.90;;;;;;5049174;28;20448;-68
2022/03/17 11:22:41;;;;;;;37.60;32.70;;;14.00;99.90;;;;;;5049370;28;20439;-66
2022/03/17 11:25:18;;;;;;;37.67;32.40;;;14.10;99.90;;;;;;5048462;28;20448;-66
2022/03/17 11:27:46;;;;;;;35.70;32.00;;;14.30;99.90;;;;;;5049294;28;20467;-66
2022/03/17 11:30:14;;;;;;;36.37;32.47;;;14.40;99.90;;;;;;5049068;28;20471;-67
2022/03/17 11:32:50;;;;;;;40.83;34.80;;;14.50;99.90;;;;;;5049244;28;20486;-67
2022/03/17 11:35:18;;;;;;;41.63;33.30;;;14.30;99.90;;;;;;5048542;28;20513;-67
2022/03/17 11:37:47;;;;;;;36.40;31.87;;;14.10;99.90;;;;;;5049034;28;20468;-68
2022/03/17 11:40:15;;;;;;;40.53;33.00;;;14.00;99.90;;;;;;5049010;28;20463;-68
2022/03/17 11:42:46;;;;;;;40.67;33.93;;;14.00;99.90;;;;;;5049185;28;20447;-67
2022/03/17 11:45:42;;;;;;;38.70;32.97;;;13.90;99.90;;;;;;5048419;28;20451;-67
2022/03/17 11:48:14;;;;;;;39.20;34.13;;;13.70;99.90;;;;;;5048665;28;20476;-67
2022/03/17 11:50:45;;;;;;;40.83;35.33;;;13.50;99.90;;;;;;5048405;28;20448;-67
2022/03/17 11:53:45;;;;;;;38.40;31.60;;;13.20;99.90;;;;;;5052317;28;20479;-67
2022/03/17 11:56:28;;;;;;;35.33;30.20;;;13.00;99.90;;;;;;5007707;28;20452;-67
2022/03/17 11:58:55;;;;;;;39.47;32.30;;;13.10;99.90;;;;;;5052629;28;20470;-65
2022/03/17 12:01:25;;;;;;;39.40;32.07;;;12.90;99.90;;;;;;5052966;28;20462;-67
2022/03/17 12:03:55;;;;;;;36.80;32.10;;;12.70;99.90;;;;;;5052877;28;20454;-67
2022/03/17 12:06:23;;;;;;;41.23;32.90;;;12.60;99.90;;;;;;5052176;28;20452;-66
2022/03/17 12:08:58;;;;;;;38.87;32.00;;;12.60;99.90;;;;;;5052364;28;20443;-67
2022/03/17 12:11:27;;;;;;;36.00;30.30;;;12.60;99.90;;;;;;5052442;28;20448;-67
2022/03/17 12:14:21;;;;;;;40.23;32.67;;;12.60;99.90;;;;;;5052800;28;20534;-67
2022/03/17 12:16:49;;;;;;;41.17;33.37;;;12.40;99.90;;;;;;5052576;28;20460;-67
2022/03/17 12:19:31;;;;;;;43.50;33.20;;;12.10;99.90;;;;;;5052171;28;20444;-67
2022/03/17 12:22:13;;;;;;;41.13;32.07;;;12.00;99.90;;;;;;5052335;28;20444;-67
2022/03/17 12:24:47;;;;;;;37.70;31.97;;;12.00;99.90;;;;;;5051545;28;20444;-67
2022/03/17 12:27:23;;;;;;;39.17;31.70;;;12.10;99.90;;;;;;5052221;28;21064;-68
2022/03/17 12:29:55;;;;;;;39.30;33.27;;;12.20;99.90;;;;;;5051946;28;20435;-68
2022/03/17 12:32:23;;;;;;;43.20;33.00;;;12.30;99.90;;;;;;5052632;28;20480;-67
2022/03/17 12:34:52;;;;;;;39.70;33.17;;;12.20;99.90;;;;;;5051571;28;20448;-67
2022/03/17 12:37:20;;;;;;;36.87;31.80;;;12.10;99.90;;;;;;5052466;28;20543;-66
2022/03/17 12:39:50;;;;;;;39.27;31.97;;;12.00;99.90;;;;;;5052506;28;20448;-67
2022/03/17 12:42:20;;;;;;;40.13;33.73;;;12.00;99.90;;;;;;5052928;28;21007;-66
2022/03/17 12:44:55;;;;;;;39.67;31.20;;;12.00;99.90;;;;;;5052145;28;20816;-65
2022/03/17 12:47:24;;;;;;;40.70;31.83;;;12.10;99.90;;;;;;5052315;28;20471;-66
2022/03/17 12:49:52;;;;;;;37.70;31.27;;;12.20;99.90;;;;;;5051723;28;20458;-66
2022/03/17 12:52:21;;;;;;;42.60;33.13;;;12.40;99.90;;;;;;5051625;28;20479;-65
2022/03/17 12:54:54;;;;;;;44.83;32.87;;;12.50;99.90;;;;;;5051125;28;20451;-63